sensor_id;sensor_type;location;lat;lon;timestamp;P1;durP1;ratioP1;P2;durP2;ratioP2
32872;SDS011;19224;52.462;16.898;2022-11-03T00:02:30;23.10;;;10.68;;
32872;SDS011;19224;52.462;16.898;2022-11-03T00:05:02;26.33;;;10.53;;
32872;SDS011;19224;52.462;16.898;2022-11-03T00:07:57;20.25;;;9.73;;
32872;SDS011;19224;52.462;16.898;2022-11-03T00:10:30;18.70;;;9.23;;
32872;SDS011;19224;52.462;16.898;2022-11-03T00:13:03;24.92;;;10.25;;
32872;SDS011;19224;52.462;16.898;2022-11-03T00:15:34;23.92;;;10.20;;
32872;SDS011;19224;52.462;16.898;2022-11-03T00:18:06;22.55;;;10.43;;
32872;SDS011;19224;52.462;16.898;2022-11-03T00:20:38;24.90;;;11.40;;
32872;SDS011;19224;52.462;16.898;2022-11-03T00:23:08;23.57;;;10.25;;
32872;SDS011;19224;52.462;16.898;2022-11-03T00:25:38;21.27;;;10.38;;
32872;SDS011;19224;52.462;16.898;2022-11-03T00:28:09;20.08;;;9.33;;
32872;SDS011;19224;52.462;16.898;2022-11-03T00:30:41;25.65;;;11.15;;
32872;SDS011;19224;52.462;16.898;2022-11-03T00:33:14;24.52;;;10.80;;
32872;SDS011;19224;52.462;16.898;2022-11-03T00:35:44;20.43;;;10.00;;
32872;SDS011;19224;52.462;16.898;2022-11-03T00:38:15;16.50;;;9.15;;
32872;SDS011;19224;52.462;16.898;2022-11-03T00:40:45;19.95;;;9.73;;
32872;SDS011;19224;52.462;16.898;2022-11-03T00:43:24;20.62;;;9.28;;
32872;SDS011;19224;52.462;16.898;2022-11-03T00:45:57;19.48;;;9.10;;
32872;SDS011;19224;52.462;16.898;2022-11-03T00:48:27;21.15;;;9.45;;
32872;SDS011;19224;52.462;16.898;2022-11-03T00:51:13;21.02;;;9.38;;
32872;SDS011;19224;52.462;16.898;2022-11-03T00:53:51;24.20;;;9.80;;
32872;SDS011;19224;52.462;16.898;2022-11-03T00:56:32;19.92;;;9.00;;
32872;SDS011;19224;52.462;16.898;2022-11-03T00:59:08;23.60;;;10.63;;
32872;SDS011;19224;52.462;16.898;2022-11-03T01:01:40;20.23;;;10.60;;
32872;SDS011;19224;52.462;16.898;2022-11-03T01:04:17;17.05;;;9.30;;
32872;SDS011;19224;52.462;16.898;2022-11-03T01:07:06;20.32;;;9.83;;
32872;SDS011;19224;52.462;16.898;2022-11-03T01:09:37;20.88;;;9.70;;
32872;SDS011;19224;52.462;16.898;2022-11-03T01:12:28;24.65;;;9.85;;
32872;SDS011;19224;52.462;16.898;2022-11-03T01:15:07;25.37;;;10.10;;
32872;SDS011;19224;52.462;16.898;2022-11-03T01:17:38;19.17;;;9.75;;
32872;SDS011;19224;52.462;16.898;2022-11-03T01:20:10;18.15;;;10.05;;
32872;SDS011;19224;52.462;16.898;2022-11-03T01:22:42;18.98;;;9.65;;
32872;SDS011;19224;52.462;16.898;2022-11-03T01:25:12;19.40;;;9.23;;
32872;SDS011;19224;52.462;16.898;2022-11-03T01:27:45;18.20;;;9.05;;
32872;SDS011;19224;52.462;16.898;2022-11-03T01:30:16;20.37;;;9.10;;
32872;SDS011;19224;52.462;16.898;2022-11-03T01:32:47;20.60;;;9.35;;
32872;SDS011;19224;52.462;16.898;2022-11-03T01:35:17;20.62;;;9.40;;
32872;SDS011;19224;52.462;16.898;2022-11-03T01:37:47;19.35;;;8.93;;
32872;SDS011;19224;52.462;16.898;2022-11-03T01:40:18;22.80;;;9.25;;
32872;SDS011;19224;52.462;16.898;2022-11-03T01:42:48;16.77;;;9.18;;
32872;SDS011;19224;52.462;16.898;2022-11-03T01:45:19;18.67;;;9.05;;
32872;SDS011;19224;52.462;16.898;2022-11-03T01:47:50;17.90;;;9.13;;
32872;SDS011;19224;52.462;16.898;2022-11-03T01:50:21;19.50;;;8.98;;
32872;SDS011;19224;52.462;16.898;2022-11-03T01:52:55;22.07;;;8.83;;
32872;SDS011;19224;52.462;16.898;2022-11-03T01:55:28;23.50;;;9.53;;
32872;SDS011;19224;52.462;16.898;2022-11-03T01:58:06;18.70;;;9.05;;
32872;SDS011;19224;52.462;16.898;2022-11-03T02:00:51;19.80;;;9.28;;
32872;SDS011;19224;52.462;16.898;2022-11-03T02:03:31;19.32;;;9.13;;
32872;SDS011;19224;52.462;16.898;2022-11-03T02:06:05;21.20;;;9.45;;
32872;SDS011;19224;52.462;16.898;2022-11-03T02:08:53;19.80;;;9.10;;
32872;SDS011;19224;52.462;16.898;2022-11-03T02:11:33;19.23;;;9.20;;
32872;SDS011;19224;52.462;16.898;2022-11-03T02:14:23;19.35;;;8.63;;
32872;SDS011;19224;52.462;16.898;2022-11-03T02:16:54;17.20;;;8.38;;
32872;SDS011;19224;52.462;16.898;2022-11-03T02:20:33;21.10;;;8.83;;
32872;SDS011;19224;52.462;16.898;2022-11-03T02:25:57;23.15;;;9.10;;
32872;SDS011;19224;52.462;16.898;2022-11-03T02:28:07;19.35;;;8.90;;
32872;SDS011;19224;52.462;16.898;2022-11-03T02:36:50;21.52;;;9.28;;
32872;SDS011;19224;52.462;16.898;2022-11-03T02:39:30;21.05;;;9.25;;
32872;SDS011;19224;52.462;16.898;2022-11-03T02:42:16;16.52;;;8.68;;
32872;SDS011;19224;52.462;16.898;2022-11-03T02:44:50;24.30;;;9.10;;
32872;SDS011;19224;52.462;16.898;2022-11-03T02:47:23;19.12;;;8.98;;
32872;SDS011;19224;52.462;16.898;2022-11-03T02:49:57;16.48;;;8.90;;
32872;SDS011;19224;52.462;16.898;2022-11-03T02:52:41;18.95;;;8.95;;
32872;SDS011;19224;52.462;16.898;2022-11-03T02:55:19;18.75;;;9.23;;
32872;SDS011;19224;52.462;16.898;2022-11-03T02:58:11;19.12;;;8.75;;
32872;SDS011;19224;52.462;16.898;2022-11-03T03:01:09;20.37;;;8.73;;
32872;SDS011;19224;52.462;16.898;2022-11-03T03:03:55;20.90;;;8.95;;
32872;SDS011;19224;52.462;16.898;2022-11-03T03:06:30;24.43;;;8.70;;
32872;SDS011;19224;52.462;16.898;2022-11-03T03:09:18;20.90;;;8.68;;
32872;SDS011;19224;52.462;16.898;2022-11-03T03:11:51;21.05;;;8.23;;
32872;SDS011;19224;52.462;16.898;2022-11-03T03:14:36;18.95;;;8.90;;
32872;SDS011;19224;52.462;16.898;2022-11-03T03:17:11;20.55;;;8.95;;
32872;SDS011;19224;52.462;16.898;2022-11-03T03:20:02;14.33;;;7.92;;
32872;SDS011;19224;52.462;16.898;2022-11-03T03:22:46;25.75;;;9.10;;
32872;SDS011;19224;52.462;16.898;2022-11-03T03:25:33;17.48;;;8.88;;
32872;SDS011;19224;52.462;16.898;2022-11-03T03:28:09;20.12;;;8.15;;
32872;SDS011;19224;52.462;16.898;2022-11-03T03:30:59;17.23;;;8.65;;
32872;SDS011;19224;52.462;16.898;2022-11-03T03:33:34;16.93;;;9.05;;
32872;SDS011;19224;52.462;16.898;2022-11-03T03:36:08;17.55;;;8.63;;
32872;SDS011;19224;52.462;16.898;2022-11-03T03:38:42;19.73;;;9.10;;
32872;SDS011;19224;52.462;16.898;2022-11-03T03:41:17;17.17;;;7.97;;
32872;SDS011;19224;52.462;16.898;2022-11-03T03:43:49;17.80;;;7.83;;
32872;SDS011;19224;52.462;16.898;2022-11-03T03:46:25;18.95;;;8.13;;
32872;SDS011;19224;52.462;16.898;2022-11-03T03:48:58;16.70;;;7.78;;
32872;SDS011;19224;52.462;16.898;2022-11-03T03:51:30;17.10;;;7.90;;
32872;SDS011;19224;52.462;16.898;2022-11-03T03:54:02;16.87;;;7.55;;
32872;SDS011;19224;52.462;16.898;2022-11-03T03:56:37;17.52;;;7.90;;
32872;SDS011;19224;52.462;16.898;2022-11-03T03:59:13;18.05;;;7.62;;
32872;SDS011;19224;52.462;16.898;2022-11-03T04:01:43;18.45;;;8.48;;
32872;SDS011;19224;52.462;16.898;2022-11-03T04:04:17;15.23;;;8.00;;
32872;SDS011;19224;52.462;16.898;2022-11-03T04:06:47;17.73;;;7.83;;
32872;SDS011;19224;52.462;16.898;2022-11-03T04:09:24;20.37;;;7.78;;
32872;SDS011;19224;52.462;16.898;2022-11-03T04:11:57;14.80;;;7.95;;
32872;SDS011;19224;52.462;16.898;2022-11-03T04:14:46;15.48;;;7.28;;
32872;SDS011;19224;52.462;16.898;2022-11-03T04:17:35;11.90;;;7.12;;
32872;SDS011;19224;52.462;16.898;2022-11-03T04:20:31;14.50;;;7.17;;
32872;SDS011;19224;52.462;16.898;2022-11-03T04:23:20;14.68;;;7.47;;
32872;SDS011;19224;52.462;16.898;2022-11-03T04:25:51;15.80;;;8.13;;
32872;SDS011;19224;52.462;16.898;2022-11-03T04:28:24;18.07;;;7.92;;
32872;SDS011;19224;52.462;16.898;2022-11-03T04:30:55;21.27;;;7.75;;
32872;SDS011;19224;52.462;16.898;2022-11-03T04:33:28;14.53;;;7.47;;
32872;SDS011;19224;52.462;16.898;2022-11-03T04:35:59;17.98;;;7.72;;
32872;SDS011;19224;52.462;16.898;2022-11-03T04:38:31;14.58;;;7.28;;
32872;SDS011;19224;52.462;16.898;2022-11-03T04:41:06;12.73;;;6.92;;
32872;SDS011;19224;52.462;16.898;2022-11-03T04:43:37;15.25;;;7.37;;
32872;SDS011;19224;52.462;16.898;2022-11-03T04:46:14;15.38;;;7.22;;
32872;SDS011;19224;52.462;16.898;2022-11-03T04:48:41;19.15;;;7.67;;
32872;SDS011;19224;52.462;16.898;2022-11-03T04:51:16;20.85;;;8.10;;
32872;SDS011;19224;52.462;16.898;2022-11-03T04:56:53;13.55;;;7.17;;
32872;SDS011;19224;52.462;16.898;2022-11-03T04:59:27;15.20;;;7.15;;
32872;SDS011;19224;52.462;16.898;2022-11-03T05:02:00;25.43;;;7.50;;
32872;SDS011;19224;52.462;16.898;2022-11-03T05:04:32;13.05;;;6.72;;
32872;SDS011;19224;52.462;16.898;2022-11-03T05:07:04;20.75;;;7.65;;
32872;SDS011;19224;52.462;16.898;2022-11-03T05:09:49;16.40;;;7.58;;
32872;SDS011;19224;52.462;16.898;2022-11-03T05:12:20;18.55;;;7.10;;
32872;SDS011;19224;52.462;16.898;2022-11-03T05:14:51;11.80;;;6.45;;
32872;SDS011;19224;52.462;16.898;2022-11-03T05:17:22;15.20;;;6.58;;
32872;SDS011;19224;52.462;16.898;2022-11-03T05:19:57;12.85;;;6.83;;
32872;SDS011;19224;52.462;16.898;2022-11-03T05:22:34;20.90;;;7.33;;
32872;SDS011;19224;52.462;16.898;2022-11-03T05:25:21;15.58;;;7.20;;
32872;SDS011;19224;52.462;16.898;2022-11-03T05:27:57;17.23;;;7.12;;
32872;SDS011;19224;52.462;16.898;2022-11-03T05:30:34;19.82;;;7.85;;
32872;SDS011;19224;52.462;16.898;2022-11-03T05:33:00;13.95;;;7.35;;
32872;SDS011;19224;52.462;16.898;2022-11-03T05:35:32;17.95;;;6.85;;
32872;SDS011;19224;52.462;16.898;2022-11-03T05:38:07;19.12;;;7.30;;
32872;SDS011;19224;52.462;16.898;2022-11-03T05:40:39;20.17;;;8.15;;
32872;SDS011;19224;52.462;16.898;2022-11-03T05:43:11;16.32;;;7.83;;
32872;SDS011;19224;52.462;16.898;2022-11-03T05:45:47;24.92;;;8.38;;
32872;SDS011;19224;52.462;16.898;2022-11-03T05:48:32;23.73;;;8.50;;
32872;SDS011;19224;52.462;16.898;2022-11-03T05:51:14;17.70;;;8.28;;
32872;SDS011;19224;52.462;16.898;2022-11-03T05:53:56;84.15;;;40.48;;
32872;SDS011;19224;52.462;16.898;2022-11-03T05:56:27;52.85;;;24.05;;
32872;SDS011;19224;52.462;16.898;2022-11-03T05:59:06;24.90;;;12.70;;
32872;SDS011;19224;52.462;16.898;2022-11-03T06:01:33;20.92;;;8.73;;
32872;SDS011;19224;52.462;16.898;2022-11-03T06:07:10;19.50;;;8.03;;
32872;SDS011;19224;52.462;16.898;2022-11-03T06:09:44;18.60;;;7.87;;
32872;SDS011;19224;52.462;16.898;2022-11-03T06:12:16;26.90;;;9.48;;
32872;SDS011;19224;52.462;16.898;2022-11-03T06:14:50;21.27;;;8.50;;
32872;SDS011;19224;52.462;16.898;2022-11-03T06:17:25;29.10;;;8.60;;
32872;SDS011;19224;52.462;16.898;2022-11-03T06:19:58;21.20;;;8.08;;
32872;SDS011;19224;52.462;16.898;2022-11-03T06:22:33;21.55;;;8.53;;
32872;SDS011;19224;52.462;16.898;2022-11-03T06:25:11;39.80;;;10.18;;
32872;SDS011;19224;52.462;16.898;2022-11-03T06:27:52;34.92;;;9.10;;
32872;SDS011;19224;52.462;16.898;2022-11-03T06:30:30;29.87;;;9.20;;
32872;SDS011;19224;52.462;16.898;2022-11-03T06:33:09;21.07;;;9.15;;
32872;SDS011;19224;52.462;16.898;2022-11-03T06:35:49;27.85;;;8.95;;
32872;SDS011;19224;52.462;16.898;2022-11-03T06:38:25;31.02;;;8.90;;
32872;SDS011;19224;52.462;16.898;2022-11-03T06:40:57;30.00;;;9.75;;
32872;SDS011;19224;52.462;16.898;2022-11-03T06:43:36;36.83;;;9.63;;
32872;SDS011;19224;52.462;16.898;2022-11-03T06:46:14;35.65;;;9.18;;
32872;SDS011;19224;52.462;16.898;2022-11-03T06:48:59;23.52;;;8.73;;
32872;SDS011;19224;52.462;16.898;2022-11-03T06:51:33;29.32;;;9.18;;
32872;SDS011;19224;52.462;16.898;2022-11-03T06:54:04;28.15;;;9.93;;
32872;SDS011;19224;52.462;16.898;2022-11-03T06:56:57;33.45;;;10.68;;
32872;SDS011;19224;52.462;16.898;2022-11-03T06:59:32;30.95;;;10.23;;
32872;SDS011;19224;52.462;16.898;2022-11-03T07:02:14;31.48;;;11.48;;
32872;SDS011;19224;52.462;16.898;2022-11-03T07:05:07;25.15;;;11.63;;
32872;SDS011;19224;52.462;16.898;2022-11-03T07:07:47;34.27;;;11.28;;
32872;SDS011;19224;52.462;16.898;2022-11-03T07:10:24;34.58;;;11.30;;
32872;SDS011;19224;52.462;16.898;2022-11-03T07:12:59;32.10;;;10.90;;
32872;SDS011;19224;52.462;16.898;2022-11-03T07:15:44;28.05;;;10.23;;
32872;SDS011;19224;52.462;16.898;2022-11-03T07:18:18;27.62;;;10.88;;
32872;SDS011;19224;52.462;16.898;2022-11-03T07:21:05;26.87;;;10.53;;
32872;SDS011;19224;52.462;16.898;2022-11-03T07:23:55;31.60;;;11.03;;
32872;SDS011;19224;52.462;16.898;2022-11-03T07:26:30;29.18;;;10.68;;
32872;SDS011;19224;52.462;16.898;2022-11-03T07:29:03;31.73;;;11.22;;
32872;SDS011;19224;52.462;16.898;2022-11-03T07:31:43;31.10;;;11.65;;
32872;SDS011;19224;52.462;16.898;2022-11-03T07:34:17;38.30;;;10.95;;
32872;SDS011;19224;52.462;16.898;2022-11-03T07:36:49;31.55;;;10.28;;
32872;SDS011;19224;52.462;16.898;2022-11-03T07:39:21;26.97;;;10.15;;
32872;SDS011;19224;52.462;16.898;2022-11-03T07:41:56;24.50;;;10.48;;
32872;SDS011;19224;52.462;16.898;2022-11-03T07:44:27;28.12;;;10.45;;
32872;SDS011;19224;52.462;16.898;2022-11-03T07:46:58;28.42;;;9.10;;
32872;SDS011;19224;52.462;16.898;2022-11-03T07:49:28;21.97;;;9.28;;
32872;SDS011;19224;52.462;16.898;2022-11-03T07:52:03;25.35;;;9.23;;
32872;SDS011;19224;52.462;16.898;2022-11-03T07:54:35;22.40;;;9.35;;
32872;SDS011;19224;52.462;16.898;2022-11-03T07:57:10;21.90;;;8.40;;
32872;SDS011;19224;52.462;16.898;2022-11-03T07:59:44;21.90;;;7.95;;
32872;SDS011;19224;52.462;16.898;2022-11-03T08:05:01;22.22;;;8.70;;
32872;SDS011;19224;52.462;16.898;2022-11-03T08:07:34;24.40;;;9.00;;
32872;SDS011;19224;52.462;16.898;2022-11-03T08:10:04;19.85;;;8.33;;
32872;SDS011;19224;52.462;16.898;2022-11-03T08:12:35;24.05;;;8.70;;
32872;SDS011;19224;52.462;16.898;2022-11-03T08:15:05;22.20;;;8.63;;
32872;SDS011;19224;52.462;16.898;2022-11-03T08:17:36;19.95;;;7.92;;
32872;SDS011;19224;52.462;16.898;2022-11-03T08:20:09;23.47;;;9.05;;
32872;SDS011;19224;52.462;16.898;2022-11-03T08:22:38;20.40;;;8.18;;
32872;SDS011;19224;52.462;16.898;2022-11-03T08:25:12;21.30;;;9.00;;
32872;SDS011;19224;52.462;16.898;2022-11-03T08:27:49;23.15;;;8.68;;
32872;SDS011;19224;52.462;16.898;2022-11-03T08:30:22;27.13;;;9.90;;
32872;SDS011;19224;52.462;16.898;2022-11-03T08:32:55;24.90;;;8.68;;
32872;SDS011;19224;52.462;16.898;2022-11-03T08:35:25;22.27;;;8.70;;
32872;SDS011;19224;52.462;16.898;2022-11-03T08:37:55;16.25;;;8.05;;
32872;SDS011;19224;52.462;16.898;2022-11-03T08:40:25;26.00;;;7.87;;
32872;SDS011;19224;52.462;16.898;2022-11-03T08:42:56;20.02;;;8.30;;
32872;SDS011;19224;52.462;16.898;2022-11-03T08:45:28;18.20;;;8.03;;
32872;SDS011;19224;52.462;16.898;2022-11-03T08:47:58;22.65;;;8.40;;
32872;SDS011;19224;52.462;16.898;2022-11-03T08:50:38;23.00;;;8.70;;
32872;SDS011;19224;52.462;16.898;2022-11-03T08:53:05;21.05;;;8.43;;
32872;SDS011;19224;52.462;16.898;2022-11-03T08:55:35;26.87;;;8.53;;
32872;SDS011;19224;52.462;16.898;2022-11-03T08:58:05;24.27;;;8.50;;
32872;SDS011;19224;52.462;16.898;2022-11-03T09:00:35;32.13;;;9.80;;
32872;SDS011;19224;52.462;16.898;2022-11-03T09:03:05;38.73;;;14.35;;
32872;SDS011;19224;52.462;16.898;2022-11-03T09:05:35;61.15;;;20.72;;
32872;SDS011;19224;52.462;16.898;2022-11-03T09:08:05;48.48;;;17.85;;
32872;SDS011;19224;52.462;16.898;2022-11-03T09:10:38;32.33;;;11.57;;
32872;SDS011;19224;52.462;16.898;2022-11-03T09:13:10;20.60;;;8.18;;
32872;SDS011;19224;52.462;16.898;2022-11-03T09:15:40;19.73;;;7.78;;
32872;SDS011;19224;52.462;16.898;2022-11-03T09:18:19;16.82;;;7.15;;
32872;SDS011;19224;52.462;16.898;2022-11-03T09:20:44;19.98;;;7.10;;
32872;SDS011;19224;52.462;16.898;2022-11-03T09:23:14;19.85;;;6.83;;
32872;SDS011;19224;52.462;16.898;2022-11-03T09:25:47;16.52;;;6.25;;
32872;SDS011;19224;52.462;16.898;2022-11-03T09:28:19;21.33;;;6.03;;
32872;SDS011;19224;52.462;16.898;2022-11-03T09:30:51;15.60;;;5.85;;
32872;SDS011;19224;52.462;16.898;2022-11-03T09:33:23;22.35;;;6.72;;
32872;SDS011;19224;52.462;16.898;2022-11-03T09:35:59;12.43;;;6.08;;
32872;SDS011;19224;52.462;16.898;2022-11-03T09:38:27;12.65;;;5.80;;
32872;SDS011;19224;52.462;16.898;2022-11-03T09:40:59;14.18;;;5.22;;
32872;SDS011;19224;52.462;16.898;2022-11-03T09:43:32;14.43;;;5.60;;
32872;SDS011;19224;52.462;16.898;2022-11-03T09:46:03;13.75;;;5.20;;
32872;SDS011;19224;52.462;16.898;2022-11-03T09:48:37;17.02;;;5.08;;
32872;SDS011;19224;52.462;16.898;2022-11-03T09:51:13;12.60;;;4.78;;
32872;SDS011;19224;52.462;16.898;2022-11-03T09:53:47;19.55;;;6.00;;
32872;SDS011;19224;52.462;16.898;2022-11-03T09:56:20;13.38;;;5.00;;
32872;SDS011;19224;52.462;16.898;2022-11-03T09:58:54;17.15;;;5.53;;
32872;SDS011;19224;52.462;16.898;2022-11-03T10:01:24;13.05;;;5.58;;
32872;SDS011;19224;52.462;16.898;2022-11-03T10:03:56;11.22;;;5.33;;
32872;SDS011;19224;52.462;16.898;2022-11-03T10:06:34;15.40;;;5.80;;
32872;SDS011;19224;52.462;16.898;2022-11-03T10:09:09;17.87;;;6.00;;
32872;SDS011;19224;52.462;16.898;2022-11-03T10:11:44;11.38;;;5.70;;
32872;SDS011;19224;52.462;16.898;2022-11-03T10:14:16;16.85;;;5.53;;
32872;SDS011;19224;52.462;16.898;2022-11-03T10:16:57;15.85;;;5.03;;
32872;SDS011;19224;52.462;16.898;2022-11-03T10:19:31;15.58;;;5.87;;
32872;SDS011;19224;52.462;16.898;2022-11-03T10:22:05;13.53;;;4.92;;
32872;SDS011;19224;52.462;16.898;2022-11-03T10:24:38;17.00;;;5.33;;
32872;SDS011;19224;52.462;16.898;2022-11-03T10:27:23;17.27;;;5.72;;
32872;SDS011;19224;52.462;16.898;2022-11-03T10:32:44;10.65;;;4.90;;
32872;SDS011;19224;52.462;16.898;2022-11-03T10:38:19;11.78;;;4.53;;
32872;SDS011;19224;52.462;16.898;2022-11-03T10:41:14;12.28;;;4.72;;
32872;SDS011;19224;52.462;16.898;2022-11-03T10:44:15;10.35;;;4.08;;
32872;SDS011;19224;52.462;16.898;2022-11-03T10:46:54;10.40;;;4.75;;
32872;SDS011;19224;52.462;16.898;2022-11-03T10:49:31;13.05;;;4.65;;
32872;SDS011;19224;52.462;16.898;2022-11-03T10:54:49;13.40;;;4.33;;
32872;SDS011;19224;52.462;16.898;2022-11-03T10:57:24;14.50;;;4.80;;
32872;SDS011;19224;52.462;16.898;2022-11-03T10:59:57;13.75;;;4.50;;
32872;SDS011;19224;52.462;16.898;2022-11-03T11:02:30;14.28;;;4.50;;
32872;SDS011;19224;52.462;16.898;2022-11-03T11:05:13;11.90;;;4.65;;
32872;SDS011;19224;52.462;16.898;2022-11-03T11:07:48;11.20;;;4.35;;
32872;SDS011;19224;52.462;16.898;2022-11-03T11:10:22;9.63;;;4.65;;
32872;SDS011;19224;52.462;16.898;2022-11-03T11:15:52;14.50;;;4.92;;
32872;SDS011;19224;52.462;16.898;2022-11-03T11:23:51;12.23;;;3.77;;
32872;SDS011;19224;52.462;16.898;2022-11-03T11:31:43;12.28;;;3.98;;
32872;SDS011;19224;52.462;16.898;2022-11-03T11:42:16;8.53;;;3.25;;
32872;SDS011;19224;52.462;16.898;2022-11-03T11:44:53;8.78;;;3.42;;
32872;SDS011;19224;52.462;16.898;2022-11-03T11:50:25;11.80;;;3.83;;
32872;SDS011;19224;52.462;16.898;2022-11-03T11:53:12;8.45;;;2.92;;
32872;SDS011;19224;52.462;16.898;2022-11-03T11:55:55;10.08;;;2.85;;
32872;SDS011;19224;52.462;16.898;2022-11-03T11:58:36;6.45;;;2.42;;
32872;SDS011;19224;52.462;16.898;2022-11-03T12:01:30;9.73;;;2.50;;
32872;SDS011;19224;52.462;16.898;2022-11-03T12:04:14;8.58;;;2.33;;
32872;SDS011;19224;52.462;16.898;2022-11-03T12:10:08;7.22;;;2.70;;
32872;SDS011;19224;52.462;16.898;2022-11-03T12:12:49;6.67;;;2.37;;
32872;SDS011;19224;52.462;16.898;2022-11-03T12:21:12;6.97;;;2.50;;
32872;SDS011;19224;52.462;16.898;2022-11-03T12:24:23;9.83;;;2.77;;
32872;SDS011;19224;52.462;16.898;2022-11-03T12:26:59;6.37;;;2.17;;
32872;SDS011;19224;52.462;16.898;2022-11-03T12:29:32;6.72;;;2.27;;
32872;SDS011;19224;52.462;16.898;2022-11-03T12:32:07;6.28;;;2.30;;
32872;SDS011;19224;52.462;16.898;2022-11-03T12:34:38;7.92;;;2.35;;
32872;SDS011;19224;52.462;16.898;2022-11-03T12:37:08;11.05;;;2.50;;
32872;SDS011;19224;52.462;16.898;2022-11-03T12:39:39;5.87;;;2.83;;
32872;SDS011;19224;52.462;16.898;2022-11-03T12:42:09;7.70;;;2.50;;
32872;SDS011;19224;52.462;16.898;2022-11-03T12:44:41;8.25;;;2.65;;
32872;SDS011;19224;52.462;16.898;2022-11-03T12:47:14;10.08;;;2.52;;
32872;SDS011;19224;52.462;16.898;2022-11-03T12:49:49;7.47;;;2.98;;
32872;SDS011;19224;52.462;16.898;2022-11-03T12:52:20;19.02;;;3.15;;
32872;SDS011;19224;52.462;16.898;2022-11-03T12:54:51;11.12;;;3.30;;
32872;SDS011;19224;52.462;16.898;2022-11-03T12:57:21;11.50;;;2.98;;
32872;SDS011;19224;52.462;16.898;2022-11-03T12:59:53;7.33;;;2.58;;
32872;SDS011;19224;52.462;16.898;2022-11-03T13:02:25;11.00;;;2.92;;
32872;SDS011;19224;52.462;16.898;2022-11-03T13:04:55;6.70;;;2.55;;
32872;SDS011;19224;52.462;16.898;2022-11-03T13:07:41;7.97;;;2.27;;
32872;SDS011;19224;52.462;16.898;2022-11-03T13:10:12;10.45;;;2.85;;
32872;SDS011;19224;52.462;16.898;2022-11-03T13:12:43;10.63;;;3.37;;
32872;SDS011;19224;52.462;16.898;2022-11-03T13:15:17;8.78;;;2.55;;
32872;SDS011;19224;52.462;16.898;2022-11-03T13:17:47;15.03;;;3.27;;
32872;SDS011;19224;52.462;16.898;2022-11-03T13:20:20;7.20;;;2.92;;
32872;SDS011;19224;52.462;16.898;2022-11-03T13:22:51;5.45;;;2.25;;
32872;SDS011;19224;52.462;16.898;2022-11-03T13:25:23;9.05;;;2.80;;
32872;SDS011;19224;52.462;16.898;2022-11-03T13:27:55;5.72;;;2.47;;
32872;SDS011;19224;52.462;16.898;2022-11-03T13:30:26;10.43;;;3.08;;
32872;SDS011;19224;52.462;16.898;2022-11-03T13:32:57;6.75;;;2.62;;
32872;SDS011;19224;52.462;16.898;2022-11-03T13:35:28;9.23;;;2.83;;
32872;SDS011;19224;52.462;16.898;2022-11-03T13:38:00;8.68;;;2.52;;
32872;SDS011;19224;52.462;16.898;2022-11-03T13:40:30;8.60;;;2.40;;
32872;SDS011;19224;52.462;16.898;2022-11-03T13:43:09;6.20;;;2.42;;
32872;SDS011;19224;52.462;16.898;2022-11-03T13:45:42;7.10;;;2.10;;
32872;SDS011;19224;52.462;16.898;2022-11-03T13:48:11;12.35;;;2.77;;
32872;SDS011;19224;52.462;16.898;2022-11-03T13:50:46;9.15;;;2.85;;
32872;SDS011;19224;52.462;16.898;2022-11-03T13:53:18;8.53;;;2.52;;
32872;SDS011;19224;52.462;16.898;2022-11-03T13:55:48;6.75;;;2.60;;
32872;SDS011;19224;52.462;16.898;2022-11-03T13:58:18;5.75;;;2.17;;
32872;SDS011;19224;52.462;16.898;2022-11-03T14:00:48;8.90;;;2.80;;
32872;SDS011;19224;52.462;16.898;2022-11-03T14:03:19;6.72;;;2.30;;
32872;SDS011;19224;52.462;16.898;2022-11-03T14:05:53;11.05;;;2.80;;
32872;SDS011;19224;52.462;16.898;2022-11-03T14:08:26;12.23;;;2.87;;
32872;SDS011;19224;52.462;16.898;2022-11-03T14:10:58;13.68;;;3.52;;
32872;SDS011;19224;52.462;16.898;2022-11-03T14:13:32;6.42;;;2.83;;
32872;SDS011;19224;52.462;16.898;2022-11-03T14:16:08;10.85;;;3.12;;
32872;SDS011;19224;52.462;16.898;2022-11-03T14:18:35;9.13;;;3.22;;
32872;SDS011;19224;52.462;16.898;2022-11-03T14:21:06;9.13;;;3.27;;
32872;SDS011;19224;52.462;16.898;2022-11-03T14:23:36;8.18;;;3.00;;
32872;SDS011;19224;52.462;16.898;2022-11-03T14:26:09;9.05;;;3.02;;
32872;SDS011;19224;52.462;16.898;2022-11-03T14:28:42;11.05;;;3.02;;
32872;SDS011;19224;52.462;16.898;2022-11-03T14:31:14;6.87;;;3.17;;
32872;SDS011;19224;52.462;16.898;2022-11-03T14:33:44;11.70;;;3.75;;
32872;SDS011;19224;52.462;16.898;2022-11-03T14:36:15;9.48;;;3.27;;
32872;SDS011;19224;52.462;16.898;2022-11-03T14:38:45;10.00;;;3.12;;
32872;SDS011;19224;52.462;16.898;2022-11-03T14:41:15;10.05;;;3.37;;
32872;SDS011;19224;52.462;16.898;2022-11-03T14:44:04;7.62;;;3.55;;
32872;SDS011;19224;52.462;16.898;2022-11-03T14:46:34;11.10;;;3.90;;
32872;SDS011;19224;52.462;16.898;2022-11-03T14:49:04;9.18;;;4.37;;
32872;SDS011;19224;52.462;16.898;2022-11-03T14:51:36;9.48;;;4.20;;
32872;SDS011;19224;52.462;16.898;2022-11-03T14:54:06;11.38;;;4.62;;
32872;SDS011;19224;52.462;16.898;2022-11-03T14:56:36;10.10;;;4.53;;
32872;SDS011;19224;52.462;16.898;2022-11-03T14:59:11;12.68;;;4.65;;
32872;SDS011;19224;52.462;16.898;2022-11-03T15:01:42;13.55;;;4.72;;
32872;SDS011;19224;52.462;16.898;2022-11-03T15:04:13;35.98;;;16.75;;
32872;SDS011;19224;52.462;16.898;2022-11-03T15:06:43;16.95;;;7.83;;
32872;SDS011;19224;52.462;16.898;2022-11-03T15:09:14;13.38;;;5.70;;
32872;SDS011;19224;52.462;16.898;2022-11-03T15:11:46;15.18;;;5.35;;
32872;SDS011;19224;52.462;16.898;2022-11-03T15:14:17;16.70;;;5.95;;
32872;SDS011;19224;52.462;16.898;2022-11-03T15:16:47;15.35;;;5.15;;
32872;SDS011;19224;52.462;16.898;2022-11-03T15:19:19;10.98;;;5.35;;
32872;SDS011;19224;52.462;16.898;2022-11-03T15:21:50;15.65;;;5.70;;
32872;SDS011;19224;52.462;16.898;2022-11-03T15:24:20;15.23;;;5.40;;
32872;SDS011;19224;52.462;16.898;2022-11-03T15:26:57;12.85;;;5.30;;
32872;SDS011;19224;52.462;16.898;2022-11-03T15:29:27;19.70;;;8.80;;
32872;SDS011;19224;52.462;16.898;2022-11-03T15:32:04;19.98;;;6.58;;
32872;SDS011;19224;52.462;16.898;2022-11-03T15:34:36;15.98;;;6.47;;
32872;SDS011;19224;52.462;16.898;2022-11-03T15:37:06;14.23;;;6.22;;
32872;SDS011;19224;52.462;16.898;2022-11-03T15:39:42;17.27;;;4.92;;
32872;SDS011;19224;52.462;16.898;2022-11-03T15:42:10;16.42;;;6.80;;
32872;SDS011;19224;52.462;16.898;2022-11-03T15:44:40;17.67;;;6.22;;
32872;SDS011;19224;52.462;16.898;2022-11-03T15:47:16;20.68;;;6.37;;
32872;SDS011;19224;52.462;16.898;2022-11-03T15:49:44;17.10;;;6.10;;
32872;SDS011;19224;52.462;16.898;2022-11-03T15:52:14;14.53;;;5.92;;
32872;SDS011;19224;52.462;16.898;2022-11-03T15:54:44;12.07;;;5.53;;
32872;SDS011;19224;52.462;16.898;2022-11-03T15:57:18;18.23;;;6.42;;
32872;SDS011;19224;52.462;16.898;2022-11-03T15:59:53;15.00;;;5.62;;
32872;SDS011;19224;52.462;16.898;2022-11-03T16:02:25;12.45;;;5.53;;
32872;SDS011;19224;52.462;16.898;2022-11-03T16:04:55;15.18;;;6.42;;
32872;SDS011;19224;52.462;16.898;2022-11-03T16:07:27;13.62;;;5.95;;